Aérodrome :
LOGIN :

S'inscrire | Disclaimer

   EN    FR    IT 

 










Légende :    VFR   VFR Marginal   IFR   IFR Intensif   IFR Très Intensif
Visi : 
Plafond : 
>= 8 km
>= 3000ft
5 à 8 km
1000 à 3000 ft
1500m à 5 km
500 à 1000 ft
800 à 1500m
200 à 500 ft
< 800m
< 200 ft
Symboles :   Orages  Brouillard  Fortes neiges  Fortes précipitations  Vent > 20 kt
SIGMETs :   Divers  Orages  Givrage  Turbulence  Onde Orograph.  Cendres Volcan.






- Altitude de l'aérodrome : 100 ft


EBDT - Schaffen

DERNIER METAR :
  • 090925Z 20006KT 9000 -RA BKN011 BKN020 03/01 Q1004 GRN WHT TEMPO GRN

METARs EXPIRÉS :
  • 090855Z 19006KT 9999 -RA SCT011 BKN020 02/01 Q1004 GRN WHT TEMPO GRN
  • 090825Z 18006KT 9999 SCT012 BKN020 02/01 Q1004 GRN WHT TEMPO GRN
  • 090806Z 18007KT 9999 SCT014 BKN022 02/00 Q1003 GRN WHT TEMPO GRN
  • 090725Z 19009KT 9999 SCT020 02/00 Q1003 WHT WHT TEMPO GRN
  • 090655Z 18008KT 9999 FEW020 SCT090 02/00 Q1003 BLU BLU BECMG WHT

TAF TAF EBDT
Valide du 09 à 10h jusqu'au 09 à 19h UTC


090841Z 0910/0919 19010KT 9999 FEW015 SCT022 BKN030
TEMPO 0910/0919 20012KT 6000 -RA SCT014 BKN020



MET'MAP, la Météo Aéronautique d'un coup d'oeil ! - Copyright ORBIFLY Décembre 2007 - Disclaimer

ORBIFLY MET'MAP TEAM :

Programmation & Développement : Alexandra Zaïnal
Sur une idée originale de : Baudouin d'Aumeries
Assistance à la programmation : Marc-Olivier Méhu
Soutien technique & logistique : Manuel Goepfert

Contact : metmap@orbifly.com




SOURCES & CREDITS :

   NOAA